sensor_id;sensor_type;location;lat;lon;timestamp;temperature;humidity
52725;DHT22;38621;52.830;6.914;2023-07-22T00:01:25;12.50;99.90
52725;DHT22;38621;52.830;6.914;2023-07-22T00:03:51;12.60;99.90
52725;DHT22;38621;52.830;6.914;2023-07-22T00:06:16;12.50;99.90
52725;DHT22;38621;52.830;6.914;2023-07-22T00:08:42;12.60;99.90
52725;DHT22;38621;52.830;6.914;2023-07-22T00:11:08;12.50;99.90
52725;DHT22;38621;52.830;6.914;2023-07-22T00:13:34;12.50;99.90
52725;DHT22;38621;52.830;6.914;2023-07-22T00:16:00;12.40;99.90
52725;DHT22;38621;52.830;6.914;2023-07-22T00:18:30;12.40;99.90
52725;DHT22;38621;52.830;6.914;2023-07-22T00:20:56;12.30;99.90
52725;DHT22;38621;52.830;6.914;2023-07-22T00:23:22;12.30;99.90
52725;DHT22;38621;52.830;6.914;2023-07-22T00:25:48;12.30;99.90
52725;DHT22;38621;52.830;6.914;2023-07-22T00:28:14;12.20;99.90
52725;DHT22;38621;52.830;6.914;2023-07-22T00:30:40;12.30;99.90
52725;DHT22;38621;52.830;6.914;2023-07-22T00:33:07;12.20;99.90
52725;DHT22;38621;52.830;6.914;2023-07-22T00:35:33;12.20;99.90
52725;DHT22;38621;52.830;6.914;2023-07-22T00:38:00;12.10;99.90
52725;DHT22;38621;52.830;6.914;2023-07-22T00:40:26;12.00;99.90
52725;DHT22;38621;52.830;6.914;2023-07-22T00:42:52;12.00;99.90
52725;DHT22;38621;52.830;6.914;2023-07-22T00:45:18;11.80;99.90
52725;DHT22;38621;52.830;6.914;2023-07-22T00:47:44;11.80;99.90
52725;DHT22;38621;52.830;6.914;2023-07-22T00:50:10;11.70;99.90
52725;DHT22;38621;52.830;6.914;2023-07-22T00:52:37;11.70;99.90
52725;DHT22;38621;52.830;6.914;2023-07-22T00:55:04;11.60;99.90
52725;DHT22;38621;52.830;6.914;2023-07-22T00:57:30;11.60;99.90
52725;DHT22;38621;52.830;6.914;2023-07-22T00:59:56;11.60;99.90
52725;DHT22;38621;52.830;6.914;2023-07-22T01:02:22;11.50;99.90
52725;DHT22;38621;52.830;6.914;2023-07-22T01:04:49;11.50;99.90
52725;DHT22;38621;52.830;6.914;2023-07-22T01:07:17;11.50;99.90
52725;DHT22;38621;52.830;6.914;2023-07-22T01:09:43;11.50;99.90
52725;DHT22;38621;52.830;6.914;2023-07-22T01:12:10;11.50;99.90
52725;DHT22;38621;52.830;6.914;2023-07-22T01:14:37;11.50;99.90
52725;DHT22;38621;52.830;6.914;2023-07-22T01:17:04;11.50;99.90
52725;DHT22;38621;52.830;6.914;2023-07-22T01:19:31;11.40;99.90
52725;DHT22;38621;52.830;6.914;2023-07-22T01:22:01;11.40;99.90
52725;DHT22;38621;52.830;6.914;2023-07-22T01:24:31;11.40;99.90
52725;DHT22;38621;52.830;6.914;2023-07-22T01:26:57;11.30;99.90
52725;DHT22;38621;52.830;6.914;2023-07-22T01:29:24;11.30;99.90
52725;DHT22;38621;52.830;6.914;2023-07-22T01:31:51;11.20;99.90
52725;DHT22;38621;52.830;6.914;2023-07-22T01:34:17;11.20;99.90
52725;DHT22;38621;52.830;6.914;2023-07-22T01:36:45;11.20;99.90
52725;DHT22;38621;52.830;6.914;2023-07-22T01:39:11;11.20;99.90
52725;DHT22;38621;52.830;6.914;2023-07-22T01:41:37;11.20;99.90
52725;DHT22;38621;52.830;6.914;2023-07-22T01:44:03;11.20;99.90
52725;DHT22;38621;52.830;6.914;2023-07-22T01:46:28;11.20;99.90
52725;DHT22;38621;52.830;6.914;2023-07-22T01:48:55;11.20;99.90
52725;DHT22;38621;52.830;6.914;2023-07-22T01:51:21;11.20;99.90
52725;DHT22;38621;52.830;6.914;2023-07-22T01:53:46;11.20;99.90
52725;DHT22;38621;52.830;6.914;2023-07-22T01:56:13;11.20;99.90
52725;DHT22;38621;52.830;6.914;2023-07-22T01:58:38;11.20;99.90
52725;DHT22;38621;52.830;6.914;2023-07-22T02:01:04;11.20;99.90
52725;DHT22;38621;52.830;6.914;2023-07-22T02:03:30;11.20;99.90
52725;DHT22;38621;52.830;6.914;2023-07-22T02:06:06;11.10;99.90
52725;DHT22;38621;52.830;6.914;2023-07-22T02:08:32;11.10;99.90
52725;DHT22;38621;52.830;6.914;2023-07-22T02:11:03;11.20;99.90
52725;DHT22;38621;52.830;6.914;2023-07-22T02:13:32;11.20;99.90
52725;DHT22;38621;52.830;6.914;2023-07-22T02:15:59;11.20;99.90
52725;DHT22;38621;52.830;6.914;2023-07-22T02:18:25;11.10;99.90
52725;DHT22;38621;52.830;6.914;2023-07-22T02:20:51;11.10;99.90
52725;DHT22;38621;52.830;6.914;2023-07-22T02:23:17;11.20;99.90
52725;DHT22;38621;52.830;6.914;2023-07-22T02:25:43;11.10;99.90
52725;DHT22;38621;52.830;6.914;2023-07-22T02:28:09;11.10;99.90
52725;DHT22;38621;52.830;6.914;2023-07-22T02:30:38;11.10;99.90
52725;DHT22;38621;52.830;6.914;2023-07-22T02:33:05;11.20;99.90
52725;DHT22;38621;52.830;6.914;2023-07-22T02:35:31;11.20;99.90
52725;DHT22;38621;52.830;6.914;2023-07-22T02:37:56;11.20;99.90
52725;DHT22;38621;52.830;6.914;2023-07-22T02:40:22;11.20;99.90
52725;DHT22;38621;52.830;6.914;2023-07-22T02:42:48;11.10;99.90
52725;DHT22;38621;52.830;6.914;2023-07-22T02:45:13;11.20;99.90
52725;DHT22;38621;52.830;6.914;2023-07-22T02:47:39;11.20;99.90
52725;DHT22;38621;52.830;6.914;2023-07-22T02:50:08;11.10;99.90
52725;DHT22;38621;52.830;6.914;2023-07-22T02:52:35;11.20;99.90
52725;DHT22;38621;52.830;6.914;2023-07-22T02:55:10;11.10;99.90
52725;DHT22;38621;52.830;6.914;2023-07-22T02:57:39;11.10;99.90
52725;DHT22;38621;52.830;6.914;2023-07-22T03:00:06;11.00;99.90
52725;DHT22;38621;52.830;6.914;2023-07-22T03:02:36;11.00;99.90
52725;DHT22;38621;52.830;6.914;2023-07-22T03:05:04;10.90;99.90
52725;DHT22;38621;52.830;6.914;2023-07-22T03:07:34;11.00;99.90
52725;DHT22;38621;52.830;6.914;2023-07-22T03:10:00;11.00;99.90
52725;DHT22;38621;52.830;6.914;2023-07-22T03:12:26;11.00;99.90
52725;DHT22;38621;52.830;6.914;2023-07-22T03:14:53;11.10;99.90
52725;DHT22;38621;52.830;6.914;2023-07-22T03:17:19;11.10;99.90
52725;DHT22;38621;52.830;6.914;2023-07-22T03:19:45;11.10;99.90
52725;DHT22;38621;52.830;6.914;2023-07-22T03:22:13;11.20;99.90
52725;DHT22;38621;52.830;6.914;2023-07-22T03:24:39;11.20;99.90
52725;DHT22;38621;52.830;6.914;2023-07-22T03:27:05;11.20;99.90
52725;DHT22;38621;52.830;6.914;2023-07-22T03:29:32;11.20;99.90
52725;DHT22;38621;52.830;6.914;2023-07-22T03:31:58;11.20;99.90
52725;DHT22;38621;52.830;6.914;2023-07-22T03:34:26;11.30;99.90
52725;DHT22;38621;52.830;6.914;2023-07-22T03:36:52;11.30;99.90
52725;DHT22;38621;52.830;6.914;2023-07-22T03:39:18;11.30;99.90
52725;DHT22;38621;52.830;6.914;2023-07-22T03:41:43;11.30;99.90
52725;DHT22;38621;52.830;6.914;2023-07-22T03:44:09;11.30;99.90
52725;DHT22;38621;52.830;6.914;2023-07-22T03:46:35;11.40;99.90
52725;DHT22;38621;52.830;6.914;2023-07-22T03:49:00;11.40;99.90
52725;DHT22;38621;52.830;6.914;2023-07-22T03:51:26;11.40;99.90
52725;DHT22;38621;52.830;6.914;2023-07-22T03:53:51;11.50;99.90
52725;DHT22;38621;52.830;6.914;2023-07-22T03:56:17;11.50;99.90
52725;DHT22;38621;52.830;6.914;2023-07-22T03:58:43;11.60;99.90
52725;DHT22;38621;52.830;6.914;2023-07-22T04:01:11;11.60;99.90
52725;DHT22;38621;52.830;6.914;2023-07-22T04:03:36;11.70;99.90
52725;DHT22;38621;52.830;6.914;2023-07-22T04:06:02;11.70;99.90
52725;DHT22;38621;52.830;6.914;2023-07-22T04:08:28;11.80;99.90
52725;DHT22;38621;52.830;6.914;2023-07-22T04:10:55;11.70;99.90
52725;DHT22;38621;52.830;6.914;2023-07-22T04:13:21;11.70;99.90
52725;DHT22;38621;52.830;6.914;2023-07-22T04:15:47;11.80;99.90
52725;DHT22;38621;52.830;6.914;2023-07-22T04:18:19;11.80;99.90
52725;DHT22;38621;52.830;6.914;2023-07-22T04:20:45;11.90;99.90
52725;DHT22;38621;52.830;6.914;2023-07-22T04:23:12;11.90;99.90
52725;DHT22;38621;52.830;6.914;2023-07-22T04:25:41;12.00;99.90
52725;DHT22;38621;52.830;6.914;2023-07-22T04:28:07;12.00;99.90
52725;DHT22;38621;52.830;6.914;2023-07-22T04:30:34;12.10;99.90
52725;DHT22;38621;52.830;6.914;2023-07-22T04:33:00;12.10;99.90
52725;DHT22;38621;52.830;6.914;2023-07-22T04:35:25;12.20;99.90
52725;DHT22;38621;52.830;6.914;2023-07-22T04:37:51;12.30;99.90
52725;DHT22;38621;52.830;6.914;2023-07-22T04:40:17;12.30;99.90
52725;DHT22;38621;52.830;6.914;2023-07-22T04:42:44;12.30;99.90
52725;DHT22;38621;52.830;6.914;2023-07-22T04:45:11;12.40;99.90
52725;DHT22;38621;52.830;6.914;2023-07-22T04:47:37;12.40;99.90
52725;DHT22;38621;52.830;6.914;2023-07-22T04:50:05;12.50;99.90
52725;DHT22;38621;52.830;6.914;2023-07-22T04:52:35;12.50;99.90
52725;DHT22;38621;52.830;6.914;2023-07-22T04:55:02;12.60;99.90
52725;DHT22;38621;52.830;6.914;2023-07-22T04:57:40;12.60;99.90
52725;DHT22;38621;52.830;6.914;2023-07-22T05:00:09;12.70;99.90
52725;DHT22;38621;52.830;6.914;2023-07-22T05:02:37;12.70;99.90
52725;DHT22;38621;52.830;6.914;2023-07-22T05:05:04;12.80;99.90
52725;DHT22;38621;52.830;6.914;2023-07-22T05:07:30;12.80;99.90
52725;DHT22;38621;52.830;6.914;2023-07-22T05:09:55;12.80;99.90
52725;DHT22;38621;52.830;6.914;2023-07-22T05:12:21;12.80;99.90
52725;DHT22;38621;52.830;6.914;2023-07-22T05:14:47;12.80;99.90
52725;DHT22;38621;52.830;6.914;2023-07-22T05:17:13;12.80;99.90
52725;DHT22;38621;52.830;6.914;2023-07-22T05:19:42;12.90;99.90
52725;DHT22;38621;52.830;6.914;2023-07-22T05:22:07;12.90;99.90
52725;DHT22;38621;52.830;6.914;2023-07-22T05:24:33;12.90;99.90
52725;DHT22;38621;52.830;6.914;2023-07-22T05:26:59;12.90;99.90
52725;DHT22;38621;52.830;6.914;2023-07-22T05:29:25;13.00;99.90
52725;DHT22;38621;52.830;6.914;2023-07-22T05:31:50;13.00;99.90
52725;DHT22;38621;52.830;6.914;2023-07-22T05:34:16;13.00;99.90
52725;DHT22;38621;52.830;6.914;2023-07-22T05:36:42;13.00;99.90
52725;DHT22;38621;52.830;6.914;2023-07-22T05:39:08;13.00;99.90
52725;DHT22;38621;52.830;6.914;2023-07-22T05:41:34;13.10;99.90
52725;DHT22;38621;52.830;6.914;2023-07-22T05:44:00;13.10;99.90
52725;DHT22;38621;52.830;6.914;2023-07-22T05:46:25;13.10;99.90
52725;DHT22;38621;52.830;6.914;2023-07-22T05:48:51;13.10;99.90
52725;DHT22;38621;52.830;6.914;2023-07-22T05:51:17;13.20;99.90
52725;DHT22;38621;52.830;6.914;2023-07-22T05:53:43;13.20;99.90
52725;DHT22;38621;52.830;6.914;2023-07-22T05:56:09;13.20;99.90
52725;DHT22;38621;52.830;6.914;2023-07-22T05:58:35;13.20;99.90
52725;DHT22;38621;52.830;6.914;2023-07-22T06:01:01;13.20;99.90
52725;DHT22;38621;52.830;6.914;2023-07-22T06:03:26;13.20;99.90
52725;DHT22;38621;52.830;6.914;2023-07-22T06:05:52;13.20;99.90
52725;DHT22;38621;52.830;6.914;2023-07-22T06:08:18;13.20;99.90
52725;DHT22;38621;52.830;6.914;2023-07-22T06:10:44;13.30;99.90
52725;DHT22;38621;52.830;6.914;2023-07-22T06:13:09;13.30;99.90
52725;DHT22;38621;52.830;6.914;2023-07-22T06:15:35;13.30;99.90
52725;DHT22;38621;52.830;6.914;2023-07-22T06:18:01;13.40;99.90
52725;DHT22;38621;52.830;6.914;2023-07-22T06:20:27;13.40;99.90
52725;DHT22;38621;52.830;6.914;2023-07-22T06:22:53;13.50;99.90
52725;DHT22;38621;52.830;6.914;2023-07-22T06:25:20;13.50;99.90
52725;DHT22;38621;52.830;6.914;2023-07-22T06:27:45;13.60;99.90
52725;DHT22;38621;52.830;6.914;2023-07-22T06:30:11;13.60;99.90
52725;DHT22;38621;52.830;6.914;2023-07-22T06:32:38;13.70;99.90
52725;DHT22;38621;52.830;6.914;2023-07-22T06:35:04;13.70;99.90
52725;DHT22;38621;52.830;6.914;2023-07-22T06:37:30;13.70;99.90
52725;DHT22;38621;52.830;6.914;2023-07-22T06:39:56;13.70;99.90
52725;DHT22;38621;52.830;6.914;2023-07-22T06:42:22;13.80;99.90
52725;DHT22;38621;52.830;6.914;2023-07-22T06:44:47;13.80;99.90
52725;DHT22;38621;52.830;6.914;2023-07-22T06:47:13;13.90;99.90
52725;DHT22;38621;52.830;6.914;2023-07-22T06:49:40;14.00;99.90
52725;DHT22;38621;52.830;6.914;2023-07-22T06:52:09;14.10;99.90
52725;DHT22;38621;52.830;6.914;2023-07-22T06:54:35;14.20;99.90
52725;DHT22;38621;52.830;6.914;2023-07-22T06:57:01;14.20;99.90
52725;DHT22;38621;52.830;6.914;2023-07-22T06:59:27;14.30;99.90
52725;DHT22;38621;52.830;6.914;2023-07-22T07:01:53;14.30;99.90
52725;DHT22;38621;52.830;6.914;2023-07-22T07:04:19;14.30;99.90
52725;DHT22;38621;52.830;6.914;2023-07-22T07:06:44;14.30;99.90
52725;DHT22;38621;52.830;6.914;2023-07-22T07:09:11;14.40;99.90
52725;DHT22;38621;52.830;6.914;2023-07-22T07:11:37;14.50;99.90
52725;DHT22;38621;52.830;6.914;2023-07-22T07:14:03;14.50;99.90
52725;DHT22;38621;52.830;6.914;2023-07-22T07:16:30;14.50;99.90
52725;DHT22;38621;52.830;6.914;2023-07-22T07:18:58;14.60;99.90
52725;DHT22;38621;52.830;6.914;2023-07-22T07:21:24;14.60;99.90
52725;DHT22;38621;52.830;6.914;2023-07-22T07:23:51;14.70;99.90
52725;DHT22;38621;52.830;6.914;2023-07-22T07:26:17;14.70;99.90
52725;DHT22;38621;52.830;6.914;2023-07-22T07:28:43;14.70;99.90
52725;DHT22;38621;52.830;6.914;2023-07-22T07:31:09;14.90;99.90
52725;DHT22;38621;52.830;6.914;2023-07-22T07:33:35;15.00;99.90
52725;DHT22;38621;52.830;6.914;2023-07-22T07:36:01;15.10;99.90
52725;DHT22;38621;52.830;6.914;2023-07-22T07:38:27;15.10;99.90
52725;DHT22;38621;52.830;6.914;2023-07-22T07:41:03;15.10;99.90
52725;DHT22;38621;52.830;6.914;2023-07-22T07:43:29;15.20;99.90
52725;DHT22;38621;52.830;6.914;2023-07-22T07:46:27;15.20;99.90
52725;DHT22;38621;52.830;6.914;2023-07-22T07:48:56;15.20;99.90
52725;DHT22;38621;52.830;6.914;2023-07-22T07:51:23;15.30;99.90
52725;DHT22;38621;52.830;6.914;2023-07-22T07:53:50;15.40;99.90
52725;DHT22;38621;52.830;6.914;2023-07-22T07:56:17;15.40;99.90
52725;DHT22;38621;52.830;6.914;2023-07-22T07:58:44;15.50;99.90
52725;DHT22;38621;52.830;6.914;2023-07-22T08:01:10;15.60;99.90
52725;DHT22;38621;52.830;6.914;2023-07-22T08:03:36;15.60;99.90
52725;DHT22;38621;52.830;6.914;2023-07-22T08:06:02;15.70;99.90
52725;DHT22;38621;52.830;6.914;2023-07-22T08:08:29;15.80;99.90
52725;DHT22;38621;52.830;6.914;2023-07-22T08:11:08;16.00;99.90
52725;DHT22;38621;52.830;6.914;2023-07-22T08:13:35;16.00;99.90
52725;DHT22;38621;52.830;6.914;2023-07-22T08:16:07;16.10;99.90
52725;DHT22;38621;52.830;6.914;2023-07-22T08:18:33;16.10;99.90
52725;DHT22;38621;52.830;6.914;2023-07-22T08:21:00;16.20;99.90
52725;DHT22;38621;52.830;6.914;2023-07-22T08:23:26;16.50;99.90
52725;DHT22;38621;52.830;6.914;2023-07-22T08:25:52;16.50;99.90
52725;DHT22;38621;52.830;6.914;2023-07-22T08:28:17;16.60;99.90
52725;DHT22;38621;52.830;6.914;2023-07-22T08:30:43;16.70;99.90
52725;DHT22;38621;52.830;6.914;2023-07-22T08:33:10;16.80;99.90
52725;DHT22;38621;52.830;6.914;2023-07-22T08:35:39;16.90;99.90
52725;DHT22;38621;52.830;6.914;2023-07-22T08:38:05;17.00;99.90
52725;DHT22;38621;52.830;6.914;2023-07-22T08:40:39;17.10;99.90
52725;DHT22;38621;52.830;6.914;2023-07-22T08:43:09;17.10;99.90
52725;DHT22;38621;52.830;6.914;2023-07-22T08:45:36;17.10;99.90
52725;DHT22;38621;52.830;6.914;2023-07-22T08:48:07;17.10;99.90
52725;DHT22;38621;52.830;6.914;2023-07-22T08:50:46;17.20;99.90
52725;DHT22;38621;52.830;6.914;2023-07-22T08:53:15;17.30;99.90
52725;DHT22;38621;52.830;6.914;2023-07-22T08:55:42;17.40;99.90
52725;DHT22;38621;52.830;6.914;2023-07-22T08:58:11;17.50;99.90
52725;DHT22;38621;52.830;6.914;2023-07-22T09:00:39;17.60;99.90
52725;DHT22;38621;52.830;6.914;2023-07-22T09:03:05;17.70;99.90
52725;DHT22;38621;52.830;6.914;2023-07-22T09:05:32;17.70;99.90
52725;DHT22;38621;52.830;6.914;2023-07-22T09:07:59;17.80;99.90
52725;DHT22;38621;52.830;6.914;2023-07-22T09:10:27;17.90;99.90
52725;DHT22;38621;52.830;6.914;2023-07-22T09:12:54;17.90;99.90
52725;DHT22;38621;52.830;6.914;2023-07-22T09:15:20;17.70;99.90
52725;DHT22;38621;52.830;6.914;2023-07-22T09:17:46;17.70;99.90
52725;DHT22;38621;52.830;6.914;2023-07-22T09:20:13;17.60;99.90
52725;DHT22;38621;52.830;6.914;2023-07-22T09:22:47;17.60;99.90
52725;DHT22;38621;52.830;6.914;2023-07-22T09:25:14;17.60;99.90
52725;DHT22;38621;52.830;6.914;2023-07-22T09:27:40;17.70;99.90
52725;DHT22;38621;52.830;6.914;2023-07-22T09:32:54;17.70;99.90
52725;DHT22;38621;52.830;6.914;2023-07-22T09:35:21;17.70;99.90
52725;DHT22;38621;52.830;6.914;2023-07-22T09:37:47;17.60;99.90
52725;DHT22;38621;52.830;6.914;2023-07-22T09:40:24;17.60;99.90
52725;DHT22;38621;52.830;6.914;2023-07-22T09:42:54;17.40;99.90
52725;DHT22;38621;52.830;6.914;2023-07-22T09:45:24;17.20;99.90
52725;DHT22;38621;52.830;6.914;2023-07-22T09:47:52;17.00;99.90
52725;DHT22;38621;52.830;6.914;2023-07-22T09:50:25;16.70;99.90
52725;DHT22;38621;52.830;6.914;2023-07-22T09:52:53;16.50;99.90
52725;DHT22;38621;52.830;6.914;2023-07-22T09:55:23;16.10;99.90
52725;DHT22;38621;52.830;6.914;2023-07-22T09:57:53;15.70;99.90
52725;DHT22;38621;52.830;6.914;2023-07-22T10:00:19;15.30;99.90
52725;DHT22;38621;52.830;6.914;2023-07-22T10:02:47;15.00;99.90
52725;DHT22;38621;52.830;6.914;2023-07-22T10:05:17;14.80;99.90
52725;DHT22;38621;52.830;6.914;2023-07-22T10:07:54;14.70;99.90
52725;DHT22;38621;52.830;6.914;2023-07-22T10:10:34;14.60;99.90
52725;DHT22;38621;52.830;6.914;2023-07-22T10:13:00;14.50;99.90
52725;DHT22;38621;52.830;6.914;2023-07-22T10:15:29;14.40;99.90
52725;DHT22;38621;52.830;6.914;2023-07-22T10:17:56;14.30;99.90
52725;DHT22;38621;52.830;6.914;2023-07-22T10:20:23;14.30;99.90
52725;DHT22;38621;52.830;6.914;2023-07-22T10:22:50;14.40;99.90
52725;DHT22;38621;52.830;6.914;2023-07-22T10:25:18;14.40;99.90
52725;DHT22;38621;52.830;6.914;2023-07-22T10:27:44;14.40;99.90
52725;DHT22;38621;52.830;6.914;2023-07-22T10:30:12;14.50;99.90
52725;DHT22;38621;52.830;6.914;2023-07-22T10:32:45;14.50;99.90
52725;DHT22;38621;52.830;6.914;2023-07-22T10:35:16;14.60;99.90
52725;DHT22;38621;52.830;6.914;2023-07-22T10:37:45;14.60;99.90
52725;DHT22;38621;52.830;6.914;2023-07-22T10:40:29;14.80;99.90
52725;DHT22;38621;52.830;6.914;2023-07-22T10:43:03;14.80;99.90
52725;DHT22;38621;52.830;6.914;2023-07-22T10:45:31;14.80;99.90
52725;DHT22;38621;52.830;6.914;2023-07-22T10:48:10;14.90;99.90
52725;DHT22;38621;52.830;6.914;2023-07-22T10:50:46;15.00;99.90
52725;DHT22;38621;52.830;6.914;2023-07-22T10:53:13;15.10;99.90
52725;DHT22;38621;52.830;6.914;2023-07-22T11:12:14;15.30;99.90
52725;DHT22;38621;52.830;6.914;2023-07-22T11:15:02;15.40;99.90
52725;DHT22;38621;52.830;6.914;2023-07-22T11:17:29;15.40;99.90
52725;DHT22;38621;52.830;6.914;2023-07-22T11:19:56;15.50;99.90
52725;DHT22;38621;52.830;6.914;2023-07-22T11:22:22;15.60;99.90
52725;DHT22;38621;52.830;6.914;2023-07-22T11:24:48;15.50;99.90
52725;DHT22;38621;52.830;6.914;2023-07-22T11:27:14;15.50;99.90
52725;DHT22;38621;52.830;6.914;2023-07-22T11:29:40;15.50;99.90
52725;DHT22;38621;52.830;6.914;2023-07-22T11:32:09;15.50;99.90
52725;DHT22;38621;52.830;6.914;2023-07-22T11:34:41;15.60;99.90
52725;DHT22;38621;52.830;6.914;2023-07-22T11:37:07;15.50;99.90
52725;DHT22;38621;52.830;6.914;2023-07-22T11:39:32;15.50;99.90
52725;DHT22;38621;52.830;6.914;2023-07-22T11:42:00;15.50;99.90
52725;DHT22;38621;52.830;6.914;2023-07-22T11:44:28;15.40;99.90
52725;DHT22;38621;52.830;6.914;2023-07-22T11:46:56;15.40;99.90
52725;DHT22;38621;52.830;6.914;2023-07-22T11:49:46;15.40;99.90
52725;DHT22;38621;52.830;6.914;2023-07-22T11:52:17;15.40;99.90
52725;DHT22;38621;52.830;6.914;2023-07-22T11:54:46;15.40;99.90
52725;DHT22;38621;52.830;6.914;2023-07-22T11:57:22;15.30;99.90
52725;DHT22;38621;52.830;6.914;2023-07-22T11:59:52;15.20;99.90
52725;DHT22;38621;52.830;6.914;2023-07-22T12:02:26;15.10;99.90
52725;DHT22;38621;52.830;6.914;2023-07-22T12:07:26;15.00;99.90
52725;DHT22;38621;52.830;6.914;2023-07-22T12:09:54;15.00;99.90
52725;DHT22;38621;52.830;6.914;2023-07-22T12:12:20;15.10;99.90
52725;DHT22;38621;52.830;6.914;2023-07-22T12:14:46;15.10;99.90
52725;DHT22;38621;52.830;6.914;2023-07-22T12:17:12;15.20;99.90
52725;DHT22;38621;52.830;6.914;2023-07-22T12:19:37;15.20;99.90
52725;DHT22;38621;52.830;6.914;2023-07-22T12:22:03;15.30;99.90
52725;DHT22;38621;52.830;6.914;2023-07-22T12:24:29;15.30;99.90
52725;DHT22;38621;52.830;6.914;2023-07-22T12:26:55;15.30;99.90
52725;DHT22;38621;52.830;6.914;2023-07-22T12:29:21;15.20;99.90
52725;DHT22;38621;52.830;6.914;2023-07-22T12:31:48;15.10;99.90
52725;DHT22;38621;52.830;6.914;2023-07-22T12:34:13;15.20;99.90
52725;DHT22;38621;52.830;6.914;2023-07-22T12:36:40;15.20;99.90
52725;DHT22;38621;52.830;6.914;2023-07-22T12:39:06;15.20;99.90
52725;DHT22;38621;52.830;6.914;2023-07-22T12:41:31;15.20;99.90
52725;DHT22;38621;52.830;6.914;2023-07-22T12:43:58;15.10;99.90
52725;DHT22;38621;52.830;6.914;2023-07-22T12:46:23;15.20;99.90
52725;DHT22;38621;52.830;6.914;2023-07-22T12:48:49;15.10;99.90
52725;DHT22;38621;52.830;6.914;2023-07-22T12:51:15;15.10;99.90
52725;DHT22;38621;52.830;6.914;2023-07-22T12:53:41;15.10;99.90
52725;DHT22;38621;52.830;6.914;2023-07-22T12:56:06;15.00;99.90
52725;DHT22;38621;52.830;6.914;2023-07-22T12:58:32;15.00;99.90
52725;DHT22;38621;52.830;6.914;2023-07-22T13:00:59;14.90;99.90
52725;DHT22;38621;52.830;6.914;2023-07-22T13:03:25;14.90;99.90
52725;DHT22;38621;52.830;6.914;2023-07-22T13:05:50;14.80;99.90
52725;DHT22;38621;52.830;6.914;2023-07-22T13:08:16;14.80;99.90
52725;DHT22;38621;52.830;6.914;2023-07-22T13:10:42;14.80;99.90
52725;DHT22;38621;52.830;6.914;2023-07-22T13:13:10;14.80;99.90
52725;DHT22;38621;52.830;6.914;2023-07-22T13:15:36;14.80;99.90
52725;DHT22;38621;52.830;6.914;2023-07-22T13:18:02;14.80;99.90
52725;DHT22;38621;52.830;6.914;2023-07-22T13:20:29;14.70;99.90
52725;DHT22;38621;52.830;6.914;2023-07-22T13:22:55;14.60;99.90
52725;DHT22;38621;52.830;6.914;2023-07-22T13:25:21;14.50;99.90
52725;DHT22;38621;52.830;6.914;2023-07-22T13:27:47;14.40;99.90
52725;DHT22;38621;52.830;6.914;2023-07-22T13:30:13;14.40;99.90
52725;DHT22;38621;52.830;6.914;2023-07-22T13:32:39;14.40;99.90
52725;DHT22;38621;52.830;6.914;2023-07-22T13:35:05;14.40;99.90
52725;DHT22;38621;52.830;6.914;2023-07-22T13:37:31;14.40;99.90
52725;DHT22;38621;52.830;6.914;2023-07-22T13:39:56;14.40;99.90
52725;DHT22;38621;52.830;6.914;2023-07-22T13:42:23;14.40;99.90
52725;DHT22;38621;52.830;6.914;2023-07-22T13:44:49;14.40;99.90
52725;DHT22;38621;52.830;6.914;2023-07-22T13:47:15;14.40;99.90
52725;DHT22;38621;52.830;6.914;2023-07-22T13:49:41;14.40;99.90
52725;DHT22;38621;52.830;6.914;2023-07-22T13:52:07;14.40;99.90
52725;DHT22;38621;52.830;6.914;2023-07-22T13:54:32;14.50;99.90
52725;DHT22;38621;52.830;6.914;2023-07-22T13:56:58;14.50;99.90
52725;DHT22;38621;52.830;6.914;2023-07-22T13:59:24;14.50;99.90
52725;DHT22;38621;52.830;6.914;2023-07-22T14:01:49;14.60;99.90
52725;DHT22;38621;52.830;6.914;2023-07-22T14:04:15;14.60;99.90
52725;DHT22;38621;52.830;6.914;2023-07-22T14:06:41;14.70;99.90
52725;DHT22;38621;52.830;6.914;2023-07-22T14:09:06;14.80;99.90
52725;DHT22;38621;52.830;6.914;2023-07-22T14:11:32;14.80;99.90
52725;DHT22;38621;52.830;6.914;2023-07-22T14:13:58;14.90;99.90
52725;DHT22;38621;52.830;6.914;2023-07-22T14:16:23;14.90;99.90
52725;DHT22;38621;52.830;6.914;2023-07-22T14:18:49;15.00;99.90
52725;DHT22;38621;52.830;6.914;2023-07-22T14:21:17;15.00;99.90
52725;DHT22;38621;52.830;6.914;2023-07-22T14:23:42;15.10;99.90
52725;DHT22;38621;52.830;6.914;2023-07-22T14:26:09;15.10;99.90
52725;DHT22;38621;52.830;6.914;2023-07-22T14:28:35;15.10;99.90
52725;DHT22;38621;52.830;6.914;2023-07-22T14:31:00;15.10;99.90
52725;DHT22;38621;52.830;6.914;2023-07-22T14:33:26;15.20;99.90
52725;DHT22;38621;52.830;6.914;2023-07-22T14:35:52;15.20;99.90
52725;DHT22;38621;52.830;6.914;2023-07-22T14:38:17;15.30;99.90
52725;DHT22;38621;52.830;6.914;2023-07-22T14:40:43;15.30;99.90
52725;DHT22;38621;52.830;6.914;2023-07-22T14:43:09;15.30;99.90
52725;DHT22;38621;52.830;6.914;2023-07-22T14:45:35;15.30;99.90
52725;DHT22;38621;52.830;6.914;2023-07-22T14:48:00;15.30;99.90
52725;DHT22;38621;52.830;6.914;2023-07-22T14:50:26;15.30;99.90
52725;DHT22;38621;52.830;6.914;2023-07-22T14:52:52;15.30;99.90
52725;DHT22;38621;52.830;6.914;2023-07-22T14:55:18;15.30;99.90
52725;DHT22;38621;52.830;6.914;2023-07-22T14:57:44;15.30;99.90
52725;DHT22;38621;52.830;6.914;2023-07-22T15:00:11;15.30;99.90
52725;DHT22;38621;52.830;6.914;2023-07-22T15:02:37;15.30;99.90
52725;DHT22;38621;52.830;6.914;2023-07-22T15:05:03;15.20;99.90
52725;DHT22;38621;52.830;6.914;2023-07-22T15:07:29;15.30;99.90
52725;DHT22;38621;52.830;6.914;2023-07-22T15:09:57;15.30;99.90
52725;DHT22;38621;52.830;6.914;2023-07-22T15:12:23;15.30;99.90
52725;DHT22;38621;52.830;6.914;2023-07-22T15:14:49;15.20;99.90
52725;DHT22;38621;52.830;6.914;2023-07-22T15:17:15;15.20;99.90
52725;DHT22;38621;52.830;6.914;2023-07-22T15:19:40;15.20;99.90
52725;DHT22;38621;52.830;6.914;2023-07-22T15:22:06;15.20;99.90
52725;DHT22;38621;52.830;6.914;2023-07-22T15:24:32;15.20;99.90
52725;DHT22;38621;52.830;6.914;2023-07-22T15:26:57;15.20;99.90
52725;DHT22;38621;52.830;6.914;2023-07-22T15:29:23;15.20;99.90
52725;DHT22;38621;52.830;6.914;2023-07-22T15:31:49;15.10;99.90
52725;DHT22;38621;52.830;6.914;2023-07-22T15:34:14;15.10;99.90
52725;DHT22;38621;52.830;6.914;2023-07-22T15:36:40;15.10;99.90
52725;DHT22;38621;52.830;6.914;2023-07-22T15:39:06;15.20;99.90
52725;DHT22;38621;52.830;6.914;2023-07-22T15:41:33;15.20;99.90
52725;DHT22;38621;52.830;6.914;2023-07-22T15:44:00;15.20;99.90
52725;DHT22;38621;52.830;6.914;2023-07-22T15:46:25;15.20;99.90
52725;DHT22;38621;52.830;6.914;2023-07-22T15:48:51;15.20;99.90
52725;DHT22;38621;52.830;6.914;2023-07-22T15:51:17;15.20;99.90